KMIE Airport (Delaware County Rgnl) Information

FAA: MIE - ICAO: KMIE

KMIE Airport Location

State Indiana
County Delaware
City Muncie
KMIE Airport is 3 miles northwest of Muncie, IN.
Latitude 40-14-32.9000N
Longitude 085-23-44.7000W
Elevation 937ft

KMIE Airport METARs

METAR KMIE 121353Z 08010KT 10SM CLR 19/13 A3023 RMK AO2 SLP231 T01940133
Altimeter 30.23"
Temperature 19.4°C (66.9°F)
Wind 80° at 10KT
Clouds Skies are clear.
Visibility 10.0mi
Time observed: 2022-08-12T13:53:00Z

KMIE Airport Details

Status Operational
Activation N/A
Ownership Public
Usage Public
Chart CHICAGO
ATC on-site Yes
Beacon schedule sunset-sunrise
Beacon color clear green

KMIE Airport Contacts

Owner DELAWARE COUNTY ARPT AUTH
Owner address 311 W. CARL SIMMONS RD., MUNCIE, IN 47303
Owner phone 765-747-5690
Manager FRANK M. PARRISH
Manager address PO BOX 234, MOUNT VERNON, IN 47620-0234
Manager phone 812-783-2300

KMIE Airport (Delaware County Rgnl) Radio Frequencies

KMIE (Airport) Radio Frequencies

UNICOM 122.95
Common traffic advisory frequency (CTAF) 120.1